Time;durP1;ratioP1;P1;durP2;ratioP2;P2;SDS_P1;SDS_P2;PMS_P1;PMS_P2;Temp;Humidity;BMP_temperature;BMP_pressure;BME280_temperature;BME280_humidity;BME280_pressure;Samples;Min_cycle;Max_cycle;Signal;HPM_P1;HPM_P2
2022/02/18 00:00:02;;;;;;;3.52;2.22;;;;;;;3.25;81.85;96148.62;1733408;82;20980;-66
2022/02/18 00:02:29;;;;;;;4.37;2.20;;;;;;;3.21;81.88;96161.63;1733434;82;20960;-70
2022/02/18 00:04:56;;;;;;;3.87;2.15;;;;;;;3.18;81.86;96181.28;1733426;82;20862;-64
2022/02/18 00:07:23;;;;;;;5.03;2.22;;;;;;;3.12;81.88;96167.33;1733360;82;20944;-64
2022/02/18 00:09:51;;;;;;;3.37;2.22;;;;;;;3.07;81.83;96173.21;1733397;82;21025;-70
2022/02/18 00:12:18;;;;;;;3.60;2.20;;;;;;;3.02;81.61;96185.98;1733377;82;20949;-64
2022/02/18 00:14:46;;;;;;;2.72;1.90;;;;;;;2.98;81.56;96202.70;1732068;82;20893;-63
2022/02/18 00:17:13;;;;;;;5.80;2.33;;;;;;;2.92;81.12;96197.23;1733373;82;21056;-64
2022/02/18 00:19:39;;;;;;;3.87;2.22;;;;;;;2.89;81.05;96199.13;1733432;82;20944;-66
2022/02/18 00:22:06;;;;;;;3.92;2.33;;;;;;;2.85;80.96;96200.77;1733577;82;21074;-67
2022/02/18 00:24:32;;;;;;;4.10;2.17;;;;;;;2.79;80.70;96213.25;1733381;82;20929;-67
2022/02/18 00:26:59;;;;;;;4.15;1.77;;;;;;;2.77;80.63;96216.72;1733418;82;20917;-69
2022/02/18 00:29:26;;;;;;;4.45;2.05;;;;;;;2.72;80.50;96228.15;1733420;82;20901;-65
2022/02/18 00:31:53;;;;;;;5.22;2.20;;;;;;;2.68;80.42;96228.47;1733626;82;20897;-67
2022/02/18 00:34:22;;;;;;;2.98;2.10;;;;;;;2.68;79.93;96235.60;1732938;82;21068;-67
2022/02/18 00:36:49;;;;;;;5.55;2.45;;;;;;;2.65;79.13;96239.59;1733381;82;20869;-68
2022/02/18 00:39:15;;;;;;;3.30;2.00;;;;;;;2.63;78.75;96240.41;1733371;82;20944;-68
2022/02/18 00:41:43;;;;;;;3.60;1.70;;;;;;;2.62;79.00;96245.44;1733681;82;20984;-67
2022/02/18 00:44:10;;;;;;;6.35;1.90;;;;;;;2.60;78.77;96258.16;1733341;82;20988;-63
2022/02/18 00:46:37;;;;;;;2.95;1.77;;;;;;;2.60;78.83;96258.16;1733446;82;21732;-66
2022/02/18 00:49:05;;;;;;;3.62;2.08;;;;;;;2.58;78.43;96260.30;1733435;82;20968;-66
2022/02/18 00:51:32;;;;;;;3.55;1.77;;;;;;;2.60;78.47;96262.64;1733410;82;20948;-61
2022/02/18 00:53:59;;;;;;;3.58;2.02;;;;;;;2.57;78.62;96273.24;1733418;82;20885;-61
2022/02/18 00:56:25;;;;;;;6.50;1.98;;;;;;;2.54;78.53;96276.44;1733447;82;21332;-61
2022/02/18 00:58:54;;;;;;;4.20;1.67;;;;;;;2.52;78.77;96279.13;1733390;82;21129;-67
2022/02/18 01:01:23;;;;;;;5.70;2.15;;;;;;;2.49;78.64;96288.41;1733711;82;20901;-65
2022/02/18 01:03:49;;;;;;;3.95;1.90;;;;;;;2.48;78.76;96296.06;1733504;82;20878;-67
2022/02/18 01:06:16;;;;;;;3.27;1.75;;;;;;;2.47;78.77;96294.48;1733388;82;20893;-68
2022/02/18 01:08:42;;;;;;;6.05;2.42;;;;;;;2.46;78.81;96295.56;1733450;82;20999;-66
2022/02/18 01:11:09;;;;;;;3.70;1.82;;;;;;;2.43;78.86;96302.72;1733456;82;21742;-68
2022/02/18 01:13:36;;;;;;;3.58;1.90;;;;;;;2.41;78.96;96289.53;1733512;82;20913;-68
2022/02/18 01:16:03;;;;;;;3.65;1.80;;;;;;;2.36;79.10;96289.05;1733496;82;20921;-67
2022/02/18 01:18:30;;;;;;;4.62;2.05;;;;;;;2.35;79.21;96303.34;1733537;82;20988;-67
2022/02/18 01:20:58;;;;;;;2.90;1.75;;;;;;;2.32;79.45;96303.09;1733565;82;20889;-66
2022/02/18 01:23:25;;;;;;;4.22;1.90;;;;;;;2.28;79.56;96296.27;1733463;82;21127;-62
2022/02/18 01:25:52;;;;;;;4.28;2.08;;;;;;;2.25;79.67;96296.81;1733395;82;20980;-63
2022/02/18 01:28:18;;;;;;;4.12;2.00;;;;;;;2.26;79.84;96308.95;1733525;82;21451;-62
2022/02/18 01:30:46;;;;;;;4.65;2.37;;;;;;;2.26;79.86;96306.30;1733524;82;20933;-63
2022/02/18 01:33:13;;;;;;;5.35;2.60;;;;;;;2.29;80.00;96309.72;1733678;82;20912;-63
2022/02/18 01:35:40;;;;;;;3.92;2.30;;;;;;;2.31;80.01;96310.22;1733409;82;21594;-65
2022/02/18 01:38:07;;;;;;;4.45;2.12;;;;;;;2.34;80.02;96307.03;1733472;82;20885;-62
2022/02/18 01:40:34;;;;;;;5.95;2.60;;;;;;;2.35;80.07;96313.91;1733547;82;21539;-63
2022/02/18 01:43:01;;;;;;;4.50;2.45;;;;;;;2.37;80.03;96310.45;1733607;82;21495;-63
2022/02/18 01:45:28;;;;;;;4.87;1.92;;;;;;;2.40;80.05;96310.43;1733585;82;20921;-63
2022/02/18 01:47:55;;;;;;;4.92;2.20;;;;;;;2.43;80.05;96321.22;1733439;82;21111;-63
2022/02/18 01:50:22;;;;;;;3.22;1.82;;;;;;;2.47;79.93;96324.88;1733487;82;20928;-65
2022/02/18 01:52:52;;;;;;;5.08;2.45;;;;;;;2.51;79.79;96324.59;1733525;82;20857;-63
2022/02/18 01:55:20;;;;;;;4.10;1.95;;;;;;;2.54;79.89;96329.30;1733689;82;20984;-68
2022/02/18 01:57:55;;;;;;;3.27;2.17;;;;;;;2.57;79.79;96338.00;1733436;82;20917;-65
2022/02/18 02:00:24;;;;;;;2.77;1.55;;;;;;;2.61;79.98;96346.97;1733809;82;21043;-62
2022/02/18 02:02:54;;;;;;;4.12;1.65;;;;;;;2.63;80.42;96331.61;1733363;82;20960;-62
2022/02/18 02:05:21;;;;;;;4.95;1.80;;;;;;;2.65;80.65;96340.58;1733526;82;20925;-68
2022/02/18 02:07:48;;;;;;;3.92;1.90;;;;;;;2.66;80.94;96341.61;1733485;82;20933;-63
2022/02/18 02:10:16;;;;;;;4.30;2.12;;;;;;;2.67;81.34;96351.13;1733454;82;20924;-68
2022/02/18 02:12:50;;;;;;;3.72;1.95;;;;;;;2.66;81.54;96352.18;1733673;82;21039;-63
2022/02/18 02:15:22;;;;;;;3.15;1.92;;;;;;;2.69;81.87;96365.37;1733501;82;20881;-63
2022/02/18 02:17:48;;;;;;;4.08;2.08;;;;;;;2.69;82.65;96368.81;1738150;82;20920;-67
2022/02/18 02:20:17;;;;;;;4.62;2.00;;;;;;;2.70;83.18;96368.29;1739098;81;21421;-67
2022/02/18 02:22:44;;;;;;;4.58;2.02;;;;;;;2.69;83.85;96378.07;1739018;82;21530;-68
2022/02/18 02:25:12;;;;;;;4.40;2.00;;;;;;;2.69;84.06;96386.00;1712575;82;21097;-65
2022/02/18 02:27:40;;;;;;;3.58;2.12;;;;;;;2.74;84.43;96377.23;1738952;82;21625;-62
2022/02/18 02:30:10;;;;;;;3.60;2.20;;;;;;;2.77;85.12;96396.52;1739015;82;20870;-65
2022/02/18 02:32:37;;;;;;;4.83;2.35;;;;;;;2.81;86.00;96395.41;1739016;82;20932;-67
2022/02/18 02:35:07;;;;;;;4.45;2.15;;;;;;;2.84;86.34;96398.83;1738955;82;20932;-62
2022/02/18 02:37:34;;;;;;;3.02;2.02;;;;;;;2.86;86.70;96408.05;1711901;82;21108;-67
2022/02/18 02:40:01;;;;;;;4.08;2.12;;;;;;;2.86;86.91;96421.81;1738830;81;20941;-63
2022/02/18 02:42:29;;;;;;;4.05;2.20;;;;;;;2.89;87.05;96418.61;1738205;82;21087;-67
2022/02/18 02:44:58;;;;;;;2.90;1.87;;;;;;;2.92;87.07;96420.71;1738705;82;20936;-68
2022/02/18 02:47:25;;;;;;;3.47;1.72;;;;;;;2.95;87.34;96427.53;1738932;82;20853;-63
2022/02/18 02:49:53;;;;;;;4.30;2.00;;;;;;;2.98;87.52;96430.95;1738001;82;21712;-68
2022/02/18 02:52:21;;;;;;;2.20;1.60;;;;;;;3.00;87.37;96435.95;1739133;82;21447;-65
2022/02/18 02:54:47;;;;;;;3.77;2.00;;;;;;;3.00;87.38;96433.31;1739270;82;20924;-64
2022/02/18 02:57:15;;;;;;;3.67;2.17;;;;;;;3.05;87.27;96439.35;1710720;82;20937;-64
2022/02/18 02:59:44;;;;;;;2.75;1.87;;;;;;;3.06;87.04;96440.91;1738369;82;21512;-63
2022/02/18 03:02:10;;;;;;;2.72;1.70;;;;;;;3.06;86.94;96445.44;1738985;82;21158;-64
2022/02/18 03:04:39;;;;;;;2.90;1.70;;;;;;;3.05;86.83;96463.16;1738939;82;20877;-61
2022/02/18 03:07:06;;;;;;;2.40;1.57;;;;;;;3.07;86.59;96460.23;1738901;82;20920;-64
2022/02/18 03:09:33;;;;;;;1.72;1.32;;;;;;;3.10;86.47;96459.67;1739045;82;20972;-62
2022/02/18 03:12:10;;;;;;;2.05;1.30;;;;;;;3.11;86.10;96480.55;1736956;82;20924;-61
2022/02/18 03:14:38;;;;;;;2.27;1.30;;;;;;;3.12;86.11;96466.27;1738880;82;21120;-66
2022/02/18 03:17:06;;;;;;;1.82;1.40;;;;;;;3.14;86.21;96473.91;1736557;82;20965;-66
2022/02/18 03:19:32;;;;;;;1.85;1.10;;;;;;;3.12;86.59;96476.05;1733530;82;20965;-62
2022/02/18 03:22:01;;;;;;;3.00;1.32;;;;;;;3.08;87.09;96481.13;1733345;82;20981;-65
2022/02/18 03:24:30;;;;;;;3.27;1.50;;;;;;;3.04;87.22;96488.02;1733676;82;21409;-63
2022/02/18 03:26:57;;;;;;;2.20;1.60;;;;;;;3.03;87.65;96488.31;1733379;82;21745;-69
2022/02/18 03:29:26;;;;;;;2.02;1.20;;;;;;;3.01;87.72;96492.56;1733301;82;20969;-68
2022/02/18 03:32:01;;;;;;;2.10;1.20;;;;;;;3.02;87.95;96495.98;1733723;82;21551;-67
2022/02/18 03:34:30;;;;;;;1.35;1.17;;;;;;;3.03;88.27;96493.60;1733277;82;20905;-68
2022/02/18 03:36:58;;;;;;;2.37;1.32;;;;;;;3.04;88.32;96499.16;1733465;82;21437;-66
2022/02/18 03:39:26;;;;;;;1.98;1.37;;;;;;;3.06;88.40;96498.34;1733453;82;21729;-67
2022/02/18 03:41:54;;;;;;;1.75;1.20;;;;;;;3.07;88.46;96509.16;1733491;82;21456;-63
2022/02/18 03:44:20;;;;;;;2.15;1.40;;;;;;;3.06;88.35;96512.34;1733455;82;21019;-63
2022/02/18 03:46:52;;;;;;;3.90;1.60;;;;;;;3.05;88.43;96510.77;1730814;82;20934;-67
2022/02/18 03:49:18;;;;;;;2.75;2.00;;;;;;;3.04;88.38;96512.39;1733762;82;20861;-62
2022/02/18 03:51:45;;;;;;;2.42;1.62;;;;;;;3.03;88.32;96506.30;1733359;82;21103;-67
2022/02/18 03:54:12;;;;;;;3.00;1.55;;;;;;;3.04;88.42;96516.36;1733642;82;20928;-65
2022/02/18 03:56:39;;;;;;;4.22;2.08;;;;;;;3.01;88.35;96521.66;1733538;82;20921;-65
2022/02/18 03:59:06;;;;;;;1.90;1.50;;;;;;;3.01;88.36;96527.48;1733509;82;21404;-67
2022/02/18 04:01:33;;;;;;;6.25;3.70;;;;;;;3.02;88.37;96526.40;1733448;82;20964;-61
2022/02/18 04:04:00;;;;;;;2.98;1.80;;;;;;;3.01;88.34;96526.16;1733430;82;21173;-65
2022/02/18 04:06:27;;;;;;;2.55;1.60;;;;;;;3.02;88.28;96535.13;1733393;82;20881;-65
2022/02/18 04:08:56;;;;;;;3.17;1.70;;;;;;;3.04;88.24;96537.52;1732062;82;21417;-68
2022/02/18 04:11:39;;;;;;;2.85;1.67;;;;;;;3.06;88.20;96543.31;1732970;82;20901;-67
2022/02/18 04:14:08;;;;;;;2.33;1.62;;;;;;;3.06;88.19;96545.96;1733562;82;21461;-63
2022/02/18 04:16:35;;;;;;;3.55;1.45;;;;;;;3.07;88.11;96540.38;1733374;82;21114;-63
2022/02/18 04:19:04;;;;;;;2.33;1.40;;;;;;;3.10;87.96;96549.63;1732850;82;21437;-64
2022/02/18 04:21:33;;;;;;;2.58;1.60;;;;;;;3.11;87.97;96553.86;1733739;82;21480;-62
2022/02/18 04:24:08;;;;;;;2.42;1.42;;;;;;;3.14;87.96;96555.93;1732311;82;20972;-67
2022/02/18 04:26:35;;;;;;;3.02;1.50;;;;;;;3.14;87.77;96556.73;1733729;82;20889;-68
2022/02/18 04:29:01;;;;;;;3.98;1.62;;;;;;;3.15;87.66;96562.81;1733370;82;21069;-67
2022/02/18 04:31:30;;;;;;;2.55;1.52;;;;;;;3.16;87.43;96555.11;1733645;82;20885;-68
2022/02/18 04:33:57;;;;;;;2.60;1.70;;;;;;;3.18;87.15;96563.59;1733625;82;20893;-65
2022/02/18 04:36:23;;;;;;;2.55;1.20;;;;;;;3.17;87.15;96573.91;1733421;82;20937;-67
2022/02/18 04:38:50;;;;;;;2.50;1.50;;;;;;;3.18;86.59;96567.56;1733457;82;21015;-67
2022/02/18 04:41:17;;;;;;;2.37;1.52;;;;;;;3.20;86.68;96576.01;1733307;82;21119;-65
2022/02/18 04:43:44;;;;;;;3.80;1.80;;;;;;;3.18;86.33;96567.56;1733389;82;21535;-65
2022/02/18 04:46:10;;;;;;;5.10;1.72;;;;;;;3.16;86.43;96588.19;1733459;82;21015;-62
2022/02/18 04:48:38;;;;;;;4.92;1.40;;;;;;;3.17;86.47;96581.31;1733468;82;20921;-67
2022/02/18 04:51:04;;;;;;;3.83;1.57;;;;;;;3.21;86.31;96593.45;1733621;82;21428;-65
2022/02/18 04:53:31;;;;;;;3.30;1.50;;;;;;;3.22;86.16;96588.42;1733586;82;21111;-69
2022/02/18 04:55:57;;;;;;;1.92;1.25;;;;;;;3.23;85.53;96601.37;1733523;82;20873;-69
2022/02/18 04:58:24;;;;;;;4.22;1.55;;;;;;;3.24;85.58;96598.20;1733591;82;20885;-65
2022/02/18 05:00:50;;;;;;;2.35;1.32;;;;;;;3.22;85.46;96600.33;1733989;81;21534;-62
2022/02/18 05:03:17;;;;;;;4.20;1.47;;;;;;;3.22;85.45;96608.27;1733590;82;20897;-63
2022/02/18 05:05:45;;;;;;;2.70;1.50;;;;;;;3.24;85.25;96611.42;1733557;82;21124;-68
2022/02/18 05:08:12;;;;;;;2.42;1.22;;;;;;;3.23;85.05;96610.63;1733586;82;20940;-67
2022/02/18 05:10:40;;;;;;;3.30;1.40;;;;;;;3.22;84.80;96610.91;1733468;82;20936;-61
2022/02/18 05:13:08;;;;;;;6.62;1.42;;;;;;;3.21;84.82;96608.00;1733549;82;20862;-67
2022/02/18 05:15:35;;;;;;;3.10;1.40;;;;;;;3.19;84.71;96617.55;1733559;82;20941;-65
2022/02/18 05:18:04;;;;;;;3.75;1.65;;;;;;;3.18;84.80;96618.59;1733464;82;21054;-65
2022/02/18 05:20:31;;;;;;;3.45;1.50;;;;;;;3.17;84.76;96628.15;1732815;82;21569;-63
2022/02/18 05:23:00;;;;;;;5.70;2.17;;;;;;;3.17;84.76;96640.05;1733448;82;20896;-69
2022/02/18 05:25:26;;;;;;;3.35;1.85;;;;;;;3.16;84.71;96635.81;1733564;82;21420;-67
2022/02/18 05:27:55;;;;;;;3.55;1.75;;;;;;;3.16;84.75;96647.72;1733514;82;20866;-65
2022/02/18 05:30:22;;;;;;;3.47;1.70;;;;;;;3.15;84.92;96648.80;1733559;82;21062;-64
2022/02/18 05:32:49;;;;;;;3.30;1.92;;;;;;;3.15;85.00;96651.45;1733498;82;20897;-62
2022/02/18 05:35:16;;;;;;;3.98;1.95;;;;;;;3.16;85.16;96646.39;1733526;82;20850;-62
2022/02/18 05:37:42;;;;;;;8.30;2.10;;;;;;;3.17;85.30;96650.64;1733699;82;21520;-62
2022/02/18 05:40:10;;;;;;;5.62;2.08;;;;;;;3.18;85.53;96663.58;1733545;82;20876;-64
2022/02/18 05:42:37;;;;;;;4.58;2.10;;;;;;;3.17;85.75;96670.48;1733548;82;21898;-64
2022/02/18 05:45:07;;;;;;;4.53;2.10;;;;;;;3.14;85.94;96670.50;1733644;82;20998;-66
2022/02/18 05:47:39;;;;;;;5.42;2.00;;;;;;;3.13;86.06;96670.78;1733444;82;20897;-66
2022/02/18 05:50:08;;;;;;;4.83;2.33;;;;;;;3.11;86.24;96684.82;1688273;84;20940;-68
2022/02/18 05:52:36;;;;;;;4.75;2.10;;;;;;;3.11;86.30;96680.85;1733481;82;20893;-63
2022/02/18 05:55:04;;;;;;;5.45;2.22;;;;;;;3.12;86.37;96688.50;1733547;82;21104;-66
2022/02/18 05:57:32;;;;;;;7.12;1.98;;;;;;;3.11;86.30;96681.62;1733411;82;20969;-64
2022/02/18 05:59:59;;;;;;;6.33;2.10;;;;;;;3.10;86.33;96687.99;1733605;82;20921;-63
2022/02/18 06:02:26;;;;;;;6.17;2.40;;;;;;;3.13;86.05;96691.95;1733698;82;21429;-68
2022/02/18 06:04:53;;;;;;;4.60;2.30;;;;;;;3.15;86.15;96699.88;1733444;82;20992;-62
2022/02/18 06:07:20;;;;;;;8.10;2.45;;;;;;;3.20;85.66;96705.66;1733701;82;21738;-64
2022/02/18 06:09:48;;;;;;;5.70;2.30;;;;;;;3.25;85.54;96710.93;1733429;82;20913;-63
2022/02/18 06:12:15;;;;;;;6.37;2.25;;;;;;;3.27;85.61;96698.21;1733587;82;20881;-63
2022/02/18 06:14:43;;;;;;;6.92;2.40;;;;;;;3.31;85.31;96714.59;1733368;82;20965;-63
2022/02/18 06:17:10;;;;;;;4.45;2.00;;;;;;;3.34;84.70;96717.22;1733640;82;21507;-63
2022/02/18 06:19:37;;;;;;;6.50;2.37;;;;;;;3.34;84.45;96723.84;1733555;82;21079;-64
2022/02/18 06:22:04;;;;;;;6.65;2.00;;;;;;;3.33;84.27;96718.27;1733521;82;21452;-63
2022/02/18 06:24:31;;;;;;;6.75;2.17;;;;;;;3.32;83.95;96718.03;1733362;82;20984;-68
2022/02/18 06:26:59;;;;;;;4.75;1.92;;;;;;;3.31;83.76;96725.70;1733743;82;20897;-64
2022/02/18 06:29:25;;;;;;;4.45;2.00;;;;;;;3.31;83.36;96733.64;1733483;82;20901;-62
2022/02/18 06:31:54;;;;;;;4.90;2.30;;;;;;;3.30;83.11;96736.81;1733377;82;21475;-63
2022/02/18 06:34:23;;;;;;;8.20;2.50;;;;;;;3.30;82.62;96736.02;1733189;82;20944;-68
2022/02/18 06:36:53;;;;;;;5.83;2.27;;;;;;;3.31;82.48;96732.31;1733622;82;20885;-63
2022/02/18 06:39:20;;;;;;;5.45;2.27;;;;;;;3.33;82.08;96744.73;1733525;82;20901;-62
2022/02/18 06:41:47;;;;;;;4.58;1.92;;;;;;;3.35;82.26;96750.55;1733353;82;20936;-66
2022/02/18 06:44:14;;;;;;;5.80;2.30;;;;;;;3.37;81.92;96753.18;1733621;82;21132;-65
2022/02/18 06:46:41;;;;;;;5.92;2.08;;;;;;;3.39;81.88;96760.87;1733404;82;21024;-61
2022/02/18 06:49:08;;;;;;;6.15;2.02;;;;;;;3.41;81.75;96750.80;1733422;82;20925;-66
2022/02/18 06:51:35;;;;;;;5.95;2.17;;;;;;;3.43;81.75;96769.30;1733464;82;20894;-69
2022/02/18 06:54:02;;;;;;;5.92;2.10;;;;;;;3.44;81.96;96762.13;1733541;82;21535;-70
2022/02/18 06:56:31;;;;;;;3.77;2.00;;;;;;;3.45;82.00;96772.47;1733507;82;20937;-66
2022/02/18 06:58:57;;;;;;;3.45;1.52;;;;;;;3.43;81.90;96770.63;1733922;82;20870;-64
2022/02/18 07:01:24;;;;;;;5.28;1.65;;;;;;;3.42;82.13;96779.63;1733998;82;20929;-62
2022/02/18 07:03:51;;;;;;;4.87;1.80;;;;;;;3.40;82.19;96776.98;1733536;82;20964;-63
2022/02/18 07:06:18;;;;;;;4.65;2.10;;;;;;;3.37;82.29;96777.53;1733483;82;20889;-68
2022/02/18 07:08:45;;;;;;;5.00;2.00;;;;;;;3.33;82.46;96791.05;1733447;82;21115;-67
2022/02/18 07:11:11;;;;;;;5.87;2.30;;;;;;;3.31;82.64;96787.37;1733404;82;21479;-63
2022/02/18 07:13:40;;;;;;;3.10;1.65;;;;;;;3.28;82.47;96801.66;1733524;82;20928;-64
2022/02/18 07:16:07;;;;;;;5.95;1.87;;;;;;;3.27;82.58;96801.42;1733615;82;21361;-63
2022/02/18 07:18:34;;;;;;;3.70;1.60;;;;;;;3.27;82.06;96810.13;1736002;82;21071;-66
2022/02/18 07:21:02;;;;;;;6.28;1.82;;;;;;;3.30;82.11;96806.14;1738956;82;40463;-65
2022/02/18 07:23:29;;;;;;;5.28;1.92;;;;;;;3.32;81.91;96805.37;1738817;82;20921;-63
2022/02/18 07:25:56;;;;;;;7.40;1.90;;;;;;;3.33;81.99;96797.67;1739131;82;20932;-63
2022/02/18 07:28:23;;;;;;;149.72;13.03;;;;;;;3.34;82.12;96795.30;1739186;81;20960;-66
2022/02/18 07:30:50;;;;;;;5.50;2.02;;;;;;;3.39;82.12;96807.19;1739016;81;20857;-65
2022/02/18 07:33:16;;;;;;;7.75;2.22;;;;;;;3.41;81.90;96816.41;1739247;82;21086;-67
2022/02/18 07:35:43;;;;;;;4.72;1.92;;;;;;;3.45;81.72;96808.73;1738778;82;20976;-66
2022/02/18 07:38:11;;;;;;;44.00;40.70;;;;;;;3.51;81.62;96813.48;1739214;82;21035;-62
2022/02/18 07:40:41;;;;;;;8.18;2.58;;;;;;;3.54;81.54;96822.17;1738985;81;20960;-66
2022/02/18 07:43:07;;;;;;;5.62;2.20;;;;;;;3.53;80.75;96824.05;1712650;82;21400;-63
2022/02/18 07:45:34;;;;;;;7.47;2.37;;;;;;;3.55;80.92;96831.19;1738985;81;21124;-63
2022/02/18 07:48:01;;;;;;;4.10;1.98;;;;;;;3.60;80.97;96821.10;1739107;82;20978;-64
2022/02/18 07:50:28;;;;;;;7.85;2.47;;;;;;;3.65;80.72;96827.14;1736531;82;20967;-63
2022/02/18 07:52:55;;;;;;;9.20;3.00;;;;;;;3.64;80.92;96835.37;1723787;82;20996;-61
2022/02/18 07:55:22;;;;;;;7.78;2.20;;;;;;;3.57;81.24;96829.05;1709460;84;21582;-62
2022/02/18 07:57:49;;;;;;;6.22;2.30;;;;;;;3.52;81.61;96840.99;1708880;84;21045;-69
2022/02/18 08:00:17;;;;;;;5.10;2.10;;;;;;;3.50;82.00;96832.53;1708266;83;21527;-64
2022/02/18 08:02:44;;;;;;;5.95;2.70;;;;;;;3.47;82.14;96843.66;1709012;84;20972;-68
2022/02/18 08:05:11;;;;;;;6.40;2.27;;;;;;;3.49;82.55;96848.14;1708837;84;21023;-67
2022/02/18 08:07:38;;;;;;;6.42;2.00;;;;;;;3.48;82.75;96839.96;1708847;84;20976;-62
2022/02/18 08:10:06;;;;;;;7.28;2.30;;;;;;;3.47;82.51;96848.95;1708885;84;21599;-62
2022/02/18 08:12:34;;;;;;;5.60;2.35;;;;;;;3.46;82.56;96850.03;1709600;83;20995;-60
2022/02/18 08:15:01;;;;;;;7.25;2.35;;;;;;;3.46;82.67;96847.39;1709275;84;21583;-61
2022/02/18 08:17:35;;;;;;;5.78;2.30;;;;;;;3.45;82.46;96860.35;1708710;83;21091;-68
2022/02/18 08:20:05;;;;;;;8.70;2.42;;;;;;;3.45;82.55;96881.00;1708589;84;21083;-67
2022/02/18 08:22:33;;;;;;;11.10;2.95;;;;;;;3.46;82.15;96864.59;1712448;82;21119;-62
2022/02/18 08:25:00;;;;;;;7.00;2.15;;;;;;;3.45;82.24;96861.67;1710448;82;21129;-63
2022/02/18 08:27:28;;;;;;;6.03;2.20;;;;;;;3.46;81.94;96872.53;1725585;82;20940;-63
2022/02/18 08:29:55;;;;;;;6.30;2.62;;;;;;;3.50;82.00;96870.92;1738974;82;21297;-63
2022/02/18 08:32:22;;;;;;;8.50;2.20;;;;;;;3.51;81.97;96879.11;1738941;82;20920;-67
2022/02/18 08:34:48;;;;;;;6.78;2.25;;;;;;;3.54;81.94;96878.57;1739269;82;21094;-60
2022/02/18 08:37:15;;;;;;;6.15;2.25;;;;;;;3.57;81.65;96883.33;1738889;82;21376;-61
2022/02/18 08:39:41;;;;;;;3.95;1.80;;;;;;;3.60;80.44;96882.00;1738898;82;21007;-59
2022/02/18 08:42:10;;;;;;;5.10;2.10;;;;;;;3.64;80.71;96871.91;1738930;81;20907;-64
2022/02/18 08:44:38;;;;;;;5.20;2.17;;;;;;;3.67;80.35;96891.77;1739246;81;20896;-61
2022/02/18 08:47:06;;;;;;;4.97;2.05;;;;;;;3.70;79.77;96893.88;1738931;82;21282;-64
2022/02/18 08:49:35;;;;;;;6.62;2.20;;;;;;;3.73;79.04;96902.05;1739142;82;20972;-62
2022/02/18 08:52:03;;;;;;;6.25;2.30;;;;;;;3.74;78.13;96899.67;1739194;82;20936;-66
2022/02/18 08:54:31;;;;;;;7.05;2.42;;;;;;;3.73;77.82;96895.43;1738740;82;21702;-63
2022/02/18 08:56:58;;;;;;;6.35;2.08;;;;;;;3.72;77.54;96897.81;1738875;82;20857;-64
2022/02/18 08:59:25;;;;;;;8.30;1.90;;;;;;;3.72;77.81;96901.78;1738832;82;21098;-62
2022/02/18 09:01:51;;;;;;;5.12;1.75;;;;;;;3.75;78.06;96909.19;1738890;82;20936;-61
2022/02/18 09:04:18;;;;;;;7.72;2.22;;;;;;;3.80;77.79;96916.31;1738865;82;21436;-61
2022/02/18 09:06:45;;;;;;;4.22;1.80;;;;;;;3.85;77.72;96908.34;1710480;82;20992;-58
2022/02/18 09:09:12;;;;;;;5.20;2.05;;;;;;;3.89;77.29;96918.12;1738277;82;21653;-63
2022/02/18 09:11:40;;;;;;;4.17;1.90;;;;;;;3.91;76.69;96929.80;1737654;82;21725;-62
2022/02/18 09:14:07;;;;;;;5.75;1.90;;;;;;;3.91;76.84;96933.20;1737479;82;21094;-61
2022/02/18 09:16:35;;;;;;;4.53;1.65;;;;;;;3.92;76.23;96937.98;1737374;82;21068;-59
2022/02/18 09:19:02;;;;;;;4.05;1.80;;;;;;;3.92;76.35;96932.69;1737236;82;21051;-63
2022/02/18 09:21:29;;;;;;;5.72;1.90;;;;;;;3.90;76.55;96939.59;1737478;81;21130;-67
2022/02/18 09:23:56;;;;;;;6.28;2.05;;;;;;;3.88;76.32;96941.72;1737797;81;21124;-67
2022/02/18 09:26:26;;;;;;;4.80;1.80;;;;;;;3.90;76.21;96951.52;1738016;82;20928;-60
2022/02/18 09:28:54;;;;;;;5.42;1.85;;;;;;;3.91;76.56;96955.73;1737687;82;20940;-60
2022/02/18 09:31:21;;;;;;;5.92;1.87;;;;;;;3.92;76.32;96961.30;1738087;82;21083;-60
2022/02/18 09:33:52;;;;;;;6.40;1.72;;;;;;;3.94;75.96;96961.81;1739037;82;20897;-66
2022/02/18 09:36:19;;;;;;;4.47;1.77;;;;;;;3.93;76.14;96970.05;1739051;82;21884;-61
2022/02/18 09:38:46;;;;;;;4.92;2.10;;;;;;;3.91;76.16;96971.62;1738959;82;20889;-62
2022/02/18 09:41:13;;;;;;;7.28;2.30;;;;;;;3.87;76.58;96982.52;1738876;82;20975;-61
2022/02/18 09:43:41;;;;;;;6.62;2.10;;;;;;;3.85;76.81;96982.00;1738991;82;20901;-67
2022/02/18 09:46:09;;;;;;;7.72;2.00;;;;;;;3.83;77.08;96988.09;1739260;82;20893;-68
2022/02/18 09:48:38;;;;;;;7.87;2.30;;;;;;;3.84;77.21;96985.70;1739088;82;21899;-62
2022/02/18 09:51:05;;;;;;;6.78;2.45;;;;;;;3.86;77.18;96992.84;1738925;81;20933;-68
2022/02/18 09:53:34;;;;;;;6.40;2.22;;;;;;;3.85;77.14;96982.00;1738979;82;21492;-62
2022/02/18 09:56:01;;;;;;;7.67;2.55;;;;;;;3.86;77.16;96991.51;1706960;82;21030;-66
2022/02/18 09:58:30;;;;;;;8.73;2.30;;;;;;;3.89;77.23;96994.95;1720686;82;20861;-63
2022/02/18 10:00:57;;;;;;;5.83;2.50;;;;;;;3.93;76.78;97003.93;1718129;82;21078;-67
2022/02/18 10:03:23;;;;;;;6.22;2.17;;;;;;;3.94;77.09;97001.55;1726580;82;20983;-64
2022/02/18 10:05:50;;;;;;;6.45;2.15;;;;;;;3.94;76.88;97003.41;1736091;82;21059;-63
2022/02/18 10:08:18;;;;;;;7.92;2.90;;;;;;;3.94;76.51;97015.33;1725907;82;20944;-63
2022/02/18 10:11:06;;;;;;;7.53;2.47;;;;;;;3.98;76.55;97015.84;1726373;81;20908;-67
2022/02/18 10:13:40;;;;;;;7.03;2.45;;;;;;;4.06;76.29;97021.91;1738831;82;21103;-67
2022/02/18 10:16:13;;;;;;;7.53;2.35;;;;;;;4.10;75.49;97024.27;1737663;82;21501;-62
2022/02/18 10:18:59;;;;;;;7.65;2.42;;;;;;;4.09;74.78;97030.66;1736483;81;21494;-62
2022/02/18 10:21:32;;;;;;;7.45;2.00;;;;;;;4.09;75.15;97031.98;1729551;81;21066;-63
2022/02/18 10:24:12;;;;;;;7.45;2.12;;;;;;;4.06;75.03;97031.19;1749976;81;21508;-62
2022/02/18 10:27:05;;;;;;;6.45;2.10;;;;;;;4.02;75.42;97046.05;1753517;81;21093;-60
2022/02/18 10:29:34;;;;;;;6.85;2.05;;;;;;;3.98;74.87;97038.36;1762136;81;21022;-61
2022/02/18 10:32:15;;;;;;;9.20;2.08;;;;;;;3.95;74.79;97044.75;1758338;81;21140;-62
2022/02/18 10:34:56;;;;;;;4.47;1.70;;;;;;;3.92;74.36;97054.55;1727624;82;21478;-62
2022/02/18 10:37:25;;;;;;;7.50;2.33;;;;;;;3.92;74.22;97051.37;1741316;82;21087;-64
2022/02/18 10:40:10;;;;;;;5.30;2.12;;;;;;;3.92;74.30;97055.35;1743738;82;21095;-65
2022/02/18 10:42:39;;;;;;;7.58;2.55;;;;;;;3.92;74.04;97063.30;1713009;83;20953;-62
2022/02/18 10:45:12;;;;;;;10.00;2.30;;;;;;;3.94;73.89;97063.82;1714082;83;21505;-69
2022/02/18 10:47:39;;;;;;;6.85;2.60;;;;;;;3.92;74.03;97075.22;1689182;83;21003;-70
2022/02/18 10:50:16;;;;;;;7.40;2.30;;;;;;;3.91;73.45;97077.59;1688871;84;21019;-65
2022/02/18 10:53:12;;;;;;;6.58;2.20;;;;;;;3.92;73.63;97077.88;1699461;83;21813;-68
2022/02/18 10:56:00;;;;;;;6.42;2.10;;;;;;;3.94;73.08;97074.42;1703166;83;21122;-63
2022/02/18 10:58:36;;;;;;;7.30;2.52;;;;;;;3.99;73.17;97081.03;1725151;83;21118;-65
2022/02/18 11:01:10;;;;;;;5.75;2.67;;;;;;;4.06;72.92;97082.86;1725183;83;21058;-68
2022/02/18 11:03:42;;;;;;;7.58;2.30;;;;;;;4.13;72.52;97080.72;1725133;83;21066;-64
2022/02/18 11:06:13;;;;;;;8.65;2.60;;;;;;;4.17;71.93;97087.58;1703633;83;21093;-61
2022/02/18 11:08:59;;;;;;;8.90;2.58;;;;;;;4.22;72.05;97088.09;1716293;83;20928;-65
2022/02/18 11:11:38;;;;;;;5.17;2.40;;;;;;;4.22;72.16;97096.05;1715562;83;21058;-65
2022/02/18 11:14:07;;;;;;;6.60;2.72;;;;;;;4.22;71.84;97106.64;1726695;82;20889;-62
2022/02/18 11:16:40;;;;;;;8.45;2.87;;;;;;;4.18;71.40;97098.45;1726674;83;20952;-61
2022/02/18 11:19:06;;;;;;;8.08;2.35;;;;;;;4.19;71.92;97100.06;1726539;83;21300;-65
2022/02/18 11:21:34;;;;;;;9.73;2.77;;;;;;;4.21;71.99;97107.20;1725233;83;21055;-65
2022/02/18 11:24:03;;;;;;;11.10;3.25;;;;;;;4.25;72.02;97110.09;1725822;83;20988;-65
2022/02/18 11:26:31;;;;;;;7.70;3.12;;;;;;;4.27;72.33;97117.23;1726821;83;20956;-64
2022/02/18 11:29:02;;;;;;;9.73;3.58;;;;;;;4.28;72.92;97120.96;1729565;82;20840;-63
2022/02/18 11:31:50;;;;;;;7.10;3.00;;;;;;;4.28;73.44;97124.14;1728383;83;21210;-60
2022/02/18 11:34:48;;;;;;;8.58;2.98;;;;;;;4.25;73.67;97123.34;1723265;83;21018;-61
2022/02/18 11:37:49;;;;;;;8.25;2.62;;;;;;;4.30;74.21;97123.33;1743787;82;20932;-66
2022/02/18 11:40:42;;;;;;;12.65;4.45;;;;;;;4.36;74.37;97120.94;1743589;82;21079;-65
2022/02/18 11:43:31;;;;;;;9.60;3.00;;;;;;;4.42;74.37;97129.13;1743894;81;21050;-62
2022/02/18 11:46:04;;;;;;;9.53;3.00;;;;;;;4.46;74.53;97131.48;1744174;82;21011;-64
2022/02/18 11:48:37;;;;;;;6.37;3.02;;;;;;;4.51;74.58;97127.48;1744315;82;21572;-60